Asau, Samoa

10:37 PM WSST on September 23, 2014 (GMT +1300)
Faleolo International | Change Station
CLOSE
Current Station
Airport
Location: Faleolo,
Elevation: 16 ft
Nearby Weather Stations

Elev 16 ft 13.83 °S, 172.01 °W | Updated 37 minutes ago

Scattered Clouds
Scattered Clouds
79 °F
Feels Like 79 °F
N
7
Wind Variable Wind from SW

Today
High -- | Low -- °F
--% Chance of Precip.
Yesterday
High -- | Low -- °F
Precip. -- in
6:19 AM 6:26 PM
Waning Crescent, 1% visible
Pressure 29.95 in
Visibility 6.2 miles
Clouds Few 2400 ft
Scattered Clouds 30000 ft
Dew Point 75 °F
Humidity 89%
Rainfall 0.00 in
Snow Depth Not available.
UV 0 out of 12
Pollen Not available.
Air Quality Not available.
Flu Activity Not available.
METAR NSFA 230900Z 22006KT 9999 FEW024 SCT300 26/24 Q1014

More Conditions Fewer Conditions

Pressure 29.95 in
Visibility 6.2 miles
Clouds Few 2400 ft
Scattered Clouds 30000 ft
Dew Point 75 °F
Humidity 89%
Rainfall 0.00 in
Snow Depth Not available.
UV 0 out of 12
Pollen Not available.
Air Quality Not available.
Flu Activity Not available.
METAR NSFA 230900Z 22006KT 9999 FEW024 SCT300 26/24 Q1014

More Conditions Fewer Conditions

10-Day Weather Forecast

Almanac

Astronomy

Sep. 23, 2014 Rise Set
Actual Time 6:19 AM WSST 6:26 PM WSST
Civil Twilight 5:57 AM WSST 6:47 PM WSST
Nautical Twilight 5:33 AM WSST 7:12 PM WSST
Astronomical Twilight 5:08 AM WSST 7:37 PM WSST
Moon 5:18 AM WSST 5:32 PM WSST
Length of Visible Light 12h 49m
Length of Day
12h 07m
Tomorrow will be 0m 45s longer.
Waning Crescent, 1% of the Moon is Illuminated
Today
Waning Crescent
Sep 24
New
Oct 1
First Quarter
Oct 8
Full
Oct 15
Last Quarter

Community

WunderPhotos

Upload Photos

1,755,644 photos uploaded!

Nearby

Snow Depth

Not available.

Earthquake Activity

City Distance Mag. Time & Date
No recent earthquake activity has been reported nearby.
Minimum magnitude displayed is 2.5.

Coastal Water Temperatures

Place Temperature
No Stations Reporting

Nearby Weather Stations